Weather at Aeropuerto "General Tomas de Heres". Ciudad Bolivar

Public forecast

Using degrees Celsius for public forecast. Weather courtesy of forecast.io.

Current aviation weather report (METAR) for Aeropuerto "General Tomas de Heres". Ciudad Bolivar

Report is more than 6 hours old.

Retrieved 2018/10/11 09:00 UTC (2 years ago):

SVCB 110900Z /////KT 9999 FEW016 22/22 Q1012

Closest aviation forecast (TAF) to Aeropuerto "General Tomas de Heres". Ciudad Bolivar

Closest forecast is General José Antonio Anzoategui International Airport, 137.7 nm (254.9 km) NNW. Retrieved 2020-09-21 00:08 UTC (1 hour ago):

TAF SVBC 202200Z 2100/2200 09008KT 9999 SCT016 TX33/2118Z TN24/2108Z TEMPO 2100/2104 09003KT 9000 DZ BKN016